Time;durP1;ratioP1;P1;durP2;ratioP2;P2;SDS_P1;SDS_P2;PMS_P1;PMS_P2;Temp;Humidity;BMP_temperature;BMP_pressure;BME280_temperature;BME280_humidity;BME280_pressure;Samples;Min_cycle;Max_cycle;Signal;HPM_P1;HPM_P2
2023/11/02 00:01:07;;;;;;;0.10;0.10;;;11.90;99.90;;;;;;5058670;28;20226;-78
2023/11/02 00:03:35;;;;;;;0.10;0.10;;;11.90;99.90;;;;;;5066879;28;20226;-78
2023/11/02 00:06:22;;;;;;;0.10;0.10;;;11.90;99.90;;;;;;5067249;28;20664;-78
2023/11/02 00:09:10;;;;;;;0.10;0.10;;;11.90;99.90;;;;;;5060062;28;20188;-78
2023/11/02 00:11:52;;;;;;;0.10;0.10;;;11.80;99.90;;;;;;5068565;28;20270;-78
2023/11/02 00:14:19;;;;;;;0.10;0.10;;;11.80;99.90;;;;;;5071123;28;20211;-77
2023/11/02 00:16:45;;;;;;;0.10;0.10;;;11.70;99.90;;;;;;5071848;28;20251;-78
2023/11/02 00:19:32;;;;;;;0.10;0.10;;;11.70;99.90;;;;;;5069987;28;20177;-78
2023/11/02 00:22:07;;;;;;;0.10;0.10;;;11.60;99.90;;;;;;5071116;28;20685;-78
2023/11/02 00:24:40;;;;;;;0.10;0.10;;;11.60;99.90;;;;;;5071479;28;20204;-78
2023/11/02 00:27:06;;;;;;;0.10;0.10;;;11.70;99.90;;;;;;5070516;28;20200;-78
2023/11/02 00:29:32;;;;;;;0.00;0.00;;;11.60;99.90;;;;;;5069421;28;20223;-78
2023/11/02 00:31:57;;;;;;;0.10;0.10;;;11.60;99.90;;;;;;5070969;28;20251;-78
2023/11/02 00:34:25;;;;;;;0.10;0.10;;;11.70;99.90;;;;;;5072046;28;20254;-78
2023/11/02 00:36:51;;;;;;;0.10;0.10;;;11.70;99.90;;;;;;5071755;28;20177;-78
2023/11/02 00:39:19;;;;;;;0.10;0.10;;;11.60;99.90;;;;;;5070397;28;20263;-78
2023/11/02 00:41:45;;;;;;;0.10;0.10;;;11.70;99.90;;;;;;5070650;28;20291;-78
2023/11/02 00:44:10;;;;;;;0.10;0.10;;;11.70;99.90;;;;;;5071730;28;20257;-78
2023/11/02 00:46:36;;;;;;;0.10;0.10;;;11.70;99.90;;;;;;5071741;28;20205;-78
2023/11/02 00:49:02;;;;;;;0.03;0.03;;;11.70;99.90;;;;;;5066825;28;20177;-78
2023/11/02 00:51:30;;;;;;;0.10;0.10;;;11.70;99.90;;;;;;5069182;28;20201;-78
2023/11/02 00:53:58;;;;;;;0.10;0.10;;;11.60;99.90;;;;;;5065235;28;20184;-78
2023/11/02 00:56:28;;;;;;;0.10;0.10;;;11.60;99.90;;;;;;5069252;28;20196;-78
2023/11/02 00:58:55;;;;;;;0.10;0.10;;;11.60;99.90;;;;;;5071074;28;20177;-78
2023/11/02 01:01:23;;;;;;;0.10;0.10;;;11.60;99.90;;;;;;5069896;28;21171;-78
2023/11/02 01:03:55;;;;;;;0.10;0.10;;;11.60;99.90;;;;;;5070986;28;20525;-78
2023/11/02 01:06:25;;;;;;;0.00;0.00;;;11.60;99.90;;;;;;5068732;28;20177;-78
2023/11/02 01:08:58;;;;;;;0.10;0.10;;;11.50;99.90;;;;;;5070408;28;20235;-78
2023/11/02 01:11:29;;;;;;;0.10;0.10;;;11.40;99.90;;;;;;5069146;28;20250;-78
2023/11/02 01:13:56;;;;;;;0.10;0.10;;;11.40;99.90;;;;;;5068975;28;20185;-78
2023/11/02 01:16:22;;;;;;;0.10;0.10;;;11.30;99.90;;;;;;5068634;28;20219;-78
2023/11/02 01:18:48;;;;;;;0.03;0.03;;;11.30;99.90;;;;;;5070809;28;20181;-78
2023/11/02 01:21:15;;;;;;;0.10;0.10;;;11.20;99.90;;;;;;5071025;28;21704;-78
2023/11/02 01:23:41;;;;;;;0.10;0.10;;;11.30;99.90;;;;;;5070491;28;20250;-78
2023/11/02 01:26:35;;;;;;;0.03;0.03;;;11.30;99.90;;;;;;5069981;28;20723;-78
2023/11/02 01:29:01;;;;;;;0.10;0.10;;;11.20;99.90;;;;;;5066375;28;20177;-78
2023/11/02 01:31:26;;;;;;;0.10;0.10;;;11.20;99.90;;;;;;5068829;28;20201;-78
2023/11/02 01:34:00;;;;;;;4.00;3.80;;;11.20;99.90;;;;;;5070755;28;20194;-79
2023/11/02 01:36:40;;;;;;;0.10;0.10;;;11.10;99.90;;;;;;5067954;28;20811;-78
2023/11/02 01:39:31;;;;;;;0.10;0.10;;;11.10;99.90;;;;;;5068483;28;20176;-78
2023/11/02 01:42:10;;;;;;;0.10;0.10;;;11.10;99.90;;;;;;5069983;28;20201;-78
2023/11/02 01:44:57;;;;;;;0.10;0.10;;;11.10;99.90;;;;;;5070294;28;20182;-77
2023/11/02 01:47:59;;;;;;;0.10;0.10;;;11.10;99.90;;;;;;5068124;28;20307;-77
2023/11/02 01:50:34;;;;;;;0.10;0.10;;;11.10;99.90;;;;;;5061239;28;20191;-77
2023/11/02 01:53:10;;;;;;;0.10;0.10;;;11.10;99.90;;;;;;5068662;28;20286;-77
2023/11/02 01:55:45;;;;;;;0.10;0.10;;;11.10;99.90;;;;;;5068124;28;20177;-77
2023/11/02 01:58:19;;;;;;;0.10;0.10;;;11.10;99.90;;;;;;5068786;28;20172;-77
2023/11/02 02:01:23;;;;;;;0.10;0.10;;;11.20;99.90;;;;;;5063507;28;20262;-78
2023/11/02 02:04:16;;;;;;;0.10;0.10;;;11.20;99.90;;;;;;5061304;28;20192;-78
2023/11/02 02:06:50;;;;;;;0.10;0.10;;;11.20;99.90;;;;;;5069836;28;21221;-78
2023/11/02 02:09:31;;;;;;;0.10;0.10;;;11.20;99.90;;;;;;5066818;28;20185;-78
2023/11/02 02:12:06;;;;;;;0.10;0.10;;;11.20;99.90;;;;;;5068394;28;20209;-78
2023/11/02 02:14:47;;;;;;;0.10;0.10;;;11.20;99.90;;;;;;5069992;28;20176;-78
2023/11/02 02:17:28;;;;;;;0.10;0.10;;;11.20;99.90;;;;;;5069657;28;20184;-78
2023/11/02 02:19:57;;;;;;;0.10;0.10;;;11.20;99.90;;;;;;5068338;28;20180;-78
2023/11/02 02:22:32;;;;;;;0.10;0.10;;;11.20;99.90;;;;;;5067222;28;20197;-78
2023/11/02 02:25:24;;;;;;;0.10;0.10;;;11.20;99.90;;;;;;5064257;28;20287;-78
2023/11/02 02:27:49;;;;;;;0.10;0.10;;;11.20;99.90;;;;;;5068183;28;20222;-78
2023/11/02 02:31:03;;;;;;;0.10;0.10;;;11.10;99.90;;;;;;5066314;28;20635;-77
2023/11/02 02:33:45;;;;;;;0.10;0.10;;;11.10;99.90;;;;;;5036661;28;20204;-78
2023/11/02 02:36:20;;;;;;;0.10;0.10;;;11.20;99.90;;;;;;5067476;28;20196;-78
2023/11/02 02:38:57;;;;;;;0.10;0.10;;;11.20;99.90;;;;;;5069334;28;20243;-78
2023/11/02 02:41:29;;;;;;;0.10;0.10;;;11.30;99.90;;;;;;5069980;28;20661;-78
2023/11/02 02:43:58;;;;;;;0.10;0.10;;;11.30;99.90;;;;;;5058874;28;20180;-78
2023/11/02 02:46:24;;;;;;;0.10;0.10;;;11.30;99.90;;;;;;5069150;28;20254;-78
2023/11/02 02:48:49;;;;;;;0.10;0.10;;;11.30;99.90;;;;;;5066973;28;20177;-78
2023/11/02 02:51:17;;;;;;;0.10;0.10;;;11.30;99.90;;;;;;5065648;28;20231;-77
2023/11/02 02:53:44;;;;;;;5.50;5.30;;;11.30;99.90;;;;;;5067167;28;20188;-78
2023/11/02 02:56:14;;;;;;;0.10;0.10;;;11.30;99.90;;;;;;5068919;28;20234;-78
2023/11/02 02:58:54;;;;;;;0.10;0.10;;;11.30;99.90;;;;;;5069064;28;20660;-78
2023/11/02 03:01:21;;;;;;;0.10;0.10;;;11.40;99.90;;;;;;5069094;28;20736;-77
2023/11/02 03:03:48;;;;;;;0.10;0.10;;;11.30;99.90;;;;;;5065115;28;20185;-78
2023/11/02 03:06:16;;;;;;;0.10;0.10;;;11.40;99.90;;;;;;5063947;28;20277;-78
2023/11/02 03:08:43;;;;;;;0.10;0.10;;;11.40;99.90;;;;;;5066492;28;20873;-78
2023/11/02 03:11:13;;;;;;;0.10;0.10;;;11.40;99.90;;;;;;5068628;28;20219;-77
2023/11/02 03:13:40;;;;;;;0.10;0.10;;;11.40;99.90;;;;;;5067495;28;20686;-77
2023/11/02 03:16:10;;;;;;;0.10;0.10;;;11.40;99.90;;;;;;5068712;28;20644;-77
2023/11/02 03:18:38;;;;;;;0.10;0.10;;;11.50;99.90;;;;;;5066134;28;20185;-78
2023/11/02 03:21:04;;;;;;;0.10;0.10;;;11.50;99.90;;;;;;5066448;28;20181;-79
2023/11/02 03:23:39;;;;;;;0.10;0.10;;;11.50;99.90;;;;;;5068281;28;20189;-78
2023/11/02 03:26:16;;;;;;;0.10;0.10;;;11.40;99.90;;;;;;5066432;28;20230;-77
2023/11/02 03:29:05;;;;;;;0.10;0.10;;;11.40;99.90;;;;;;5067144;28;20192;-78
2023/11/02 03:31:51;;;;;;;0.10;0.10;;;11.50;99.90;;;;;;5066869;28;20698;-77
2023/11/02 03:34:41;;;;;;;0.10;0.10;;;11.40;99.90;;;;;;5067663;28;20173;-78
2023/11/02 03:37:30;;;;;;;0.03;0.03;;;11.50;99.90;;;;;;5068442;28;20177;-78
2023/11/02 03:40:01;;;;;;;0.10;0.10;;;11.50;99.90;;;;;;5064299;28;20565;-77
2023/11/02 03:42:41;;;;;;;0.10;0.10;;;11.50;99.90;;;;;;5063025;28;20209;-78
2023/11/02 03:45:11;;;;;;;0.10;0.10;;;11.50;99.90;;;;;;5068441;28;20671;-78
2023/11/02 03:47:54;;;;;;;0.10;0.10;;;11.40;99.90;;;;;;5067386;28;20239;-78
2023/11/02 03:50:45;;;;;;;0.10;0.10;;;11.50;99.90;;;;;;5071851;28;20181;-78
2023/11/02 03:53:13;;;;;;;0.10;0.10;;;11.50;99.90;;;;;;5070291;28;20747;-78
2023/11/02 03:55:42;;;;;;;0.10;0.10;;;11.40;99.90;;;;;;5070084;28;20215;-78
2023/11/02 03:58:08;;;;;;;0.00;0.00;;;11.50;99.90;;;;;;5070395;28;20196;-78
2023/11/02 04:00:47;;;;;;;0.03;0.03;;;11.50;99.90;;;;;;5069743;28;20185;-78
2023/11/02 04:03:14;;;;;;;0.10;0.10;;;11.50;99.90;;;;;;5071312;28;20221;-78
2023/11/02 04:05:43;;;;;;;0.10;0.10;;;11.50;99.90;;;;;;5068824;28;20196;-78
2023/11/02 04:08:20;;;;;;;0.10;0.10;;;11.30;99.90;;;;;;5070738;28;20193;-78
2023/11/02 04:10:55;;;;;;;0.10;0.10;;;11.20;99.90;;;;;;5071835;28;20220;-78
2023/11/02 04:13:40;;;;;;;0.10;0.10;;;11.20;99.90;;;;;;5071436;28;20536;-78
2023/11/02 04:16:06;;;;;;;0.00;0.00;;;11.30;99.90;;;;;;5071395;28;20173;-77
2023/11/02 04:18:32;;;;;;;0.10;0.10;;;11.20;99.90;;;;;;5069740;28;20196;-78
2023/11/02 04:20:57;;;;;;;0.10;0.10;;;11.30;99.90;;;;;;5070507;28;20323;-78
2023/11/02 04:23:23;;;;;;;0.10;0.10;;;11.20;99.90;;;;;;5069822;28;20181;-78
2023/11/02 04:25:54;;;;;;;0.10;0.10;;;11.30;99.90;;;;;;5067309;28;20497;-78
2023/11/02 04:28:19;;;;;;;0.10;0.10;;;11.30;99.90;;;;;;5070519;28;20193;-77
2023/11/02 04:30:47;;;;;;;0.10;0.10;;;11.30;99.90;;;;;;5068939;28;20232;-78
2023/11/02 04:33:13;;;;;;;0.10;0.10;;;11.20;99.90;;;;;;5069114;28;20208;-78
2023/11/02 04:35:39;;;;;;;0.10;0.10;;;11.10;99.90;;;;;;5071642;28;20707;-78
2023/11/02 04:38:07;;;;;;;0.10;0.10;;;11.20;99.90;;;;;;5066952;28;20264;-78
2023/11/02 04:40:33;;;;;;;0.10;0.10;;;11.20;99.90;;;;;;5069966;28;20185;-78
2023/11/02 04:43:02;;;;;;;0.10;0.10;;;11.30;99.90;;;;;;5071068;28;20284;-78
2023/11/02 04:45:28;;;;;;;0.10;0.10;;;11.20;99.90;;;;;;5064647;28;20660;-78
2023/11/02 04:47:54;;;;;;;0.10;0.10;;;11.30;99.90;;;;;;5069412;28;20197;-78
2023/11/02 04:50:20;;;;;;;0.10;0.10;;;11.30;99.90;;;;;;5071548;28;20192;-78
2023/11/02 04:52:46;;;;;;;0.10;0.10;;;11.20;99.90;;;;;;5069317;28;20220;-77
2023/11/02 04:55:12;;;;;;;0.10;0.10;;;11.10;99.90;;;;;;5062918;28;20544;-78
2023/11/02 04:57:38;;;;;;;0.10;0.10;;;11.20;99.90;;;;;;5066439;28;20173;-78
2023/11/02 05:00:04;;;;;;;0.10;0.10;;;11.20;99.90;;;;;;5066644;28;20191;-78
2023/11/02 05:02:30;;;;;;;0.10;0.10;;;11.20;99.90;;;;;;5082437;28;20208;-78
2023/11/02 05:04:56;;;;;;;0.10;0.10;;;11.20;99.90;;;;;;5066644;28;20208;-78
2023/11/02 05:07:22;;;;;;;0.10;0.10;;;11.20;99.90;;;;;;5066337;28;20707;-78
2023/11/02 05:09:48;;;;;;;0.10;0.10;;;11.20;99.90;;;;;;5068172;28;20180;-78
2023/11/02 05:12:13;;;;;;;0.10;0.10;;;11.20;99.90;;;;;;5068880;28;20695;-78
2023/11/02 05:14:39;;;;;;;0.10;0.10;;;11.10;99.90;;;;;;5067195;28;20398;-78
2023/11/02 05:17:05;;;;;;;0.03;0.03;;;10.90;99.90;;;;;;5067782;28;20193;-79
2023/11/02 05:19:31;;;;;;;0.10;0.10;;;10.80;99.90;;;;;;5067363;28;20186;-78
2023/11/02 05:21:56;;;;;;;0.10;0.10;;;10.90;99.90;;;;;;5084232;28;20579;-78
2023/11/02 05:24:22;;;;;;;0.10;0.10;;;11.00;99.90;;;;;;5062096;28;20177;-78
2023/11/02 05:26:47;;;;;;;0.10;0.10;;;10.80;99.90;;;;;;5066267;28;20201;-78
2023/11/02 05:29:13;;;;;;;0.10;0.10;;;10.80;99.90;;;;;;5068860;28;20188;-78
2023/11/02 05:31:39;;;;;;;0.10;0.10;;;10.70;99.90;;;;;;5067130;28;20200;-77
2023/11/02 05:34:04;;;;;;;0.10;0.10;;;10.60;99.90;;;;;;5059740;28;20181;-78
2023/11/02 05:36:30;;;;;;;0.10;0.10;;;10.60;99.90;;;;;;5067641;28;20234;-78
2023/11/02 05:38:55;;;;;;;0.10;0.10;;;10.60;99.90;;;;;;5068552;28;20243;-78
2023/11/02 05:41:22;;;;;;;0.10;0.10;;;10.60;99.90;;;;;;5068064;28;20220;-78
2023/11/02 05:43:47;;;;;;;0.10;0.10;;;10.60;99.90;;;;;;5066340;28;20706;-78
2023/11/02 05:46:13;;;;;;;0.10;0.10;;;10.60;99.90;;;;;;5068146;28;20185;-79
2023/11/02 05:48:38;;;;;;;0.10;0.10;;;10.70;99.90;;;;;;5065383;28;20307;-78
2023/11/02 05:51:04;;;;;;;0.10;0.10;;;10.70;99.90;;;;;;5068539;28;20181;-79
2023/11/02 05:53:30;;;;;;;0.00;0.00;;;10.80;99.90;;;;;;5063792;28;20189;-79
2023/11/02 05:55:55;;;;;;;0.10;0.10;;;10.80;99.90;;;;;;5063320;28;20192;-79
2023/11/02 05:58:21;;;;;;;0.10;0.10;;;10.90;99.90;;;;;;5064362;28;20279;-79
2023/11/02 06:00:47;;;;;;;0.10;0.10;;;11.00;99.90;;;;;;5067412;28;20242;-79
2023/11/02 06:03:13;;;;;;;0.10;0.10;;;11.00;99.90;;;;;;5065517;28;20223;-79
2023/11/02 06:05:38;;;;;;;0.10;0.10;;;11.00;99.90;;;;;;5067509;28;20267;-79
2023/11/02 06:08:04;;;;;;;0.10;0.10;;;11.00;99.90;;;;;;5066741;28;20212;-79
2023/11/02 06:10:29;;;;;;;0.10;0.10;;;10.90;99.90;;;;;;5058477;28;20185;-79
2023/11/02 06:12:55;;;;;;;0.10;0.10;;;10.80;99.90;;;;;;5065445;28;20205;-79
2023/11/02 06:15:20;;;;;;;0.10;0.10;;;10.70;99.90;;;;;;5061284;28;20245;-78
2023/11/02 06:17:46;;;;;;;0.10;0.10;;;10.70;99.90;;;;;;5065929;28;20585;-78
2023/11/02 06:20:11;;;;;;;0.10;0.10;;;10.60;99.90;;;;;;5058676;28;20300;-78
2023/11/02 06:22:39;;;;;;;0.10;0.10;;;10.80;99.90;;;;;;5068253;28;20254;-78
2023/11/02 06:25:05;;;;;;;0.10;0.10;;;10.60;99.90;;;;;;5067236;28;20216;-78
2023/11/02 06:27:31;;;;;;;0.10;0.10;;;10.60;99.90;;;;;;5066476;28;20224;-78
2023/11/02 06:29:56;;;;;;;0.10;0.10;;;10.10;99.90;;;;;;5060828;28;20243;-78
2023/11/02 06:32:22;;;;;;;0.10;0.10;;;10.20;99.90;;;;;;5058563;28;20775;-78
2023/11/02 06:34:48;;;;;;;0.10;0.10;;;10.40;99.90;;;;;;5067218;28;20569;-78
2023/11/02 06:37:18;;;;;;;0.10;0.10;;;10.20;99.90;;;;;;5067081;28;20185;-78
2023/11/02 06:39:44;;;;;;;0.10;0.10;;;10.10;99.90;;;;;;5059487;28;20179;-78
2023/11/02 06:42:10;;;;;;;0.10;0.10;;;10.10;99.90;;;;;;5064612;28;20219;-78
2023/11/02 06:44:39;;;;;;;0.10;0.10;;;10.20;99.90;;;;;;5060392;28;20561;-78
2023/11/02 06:47:05;;;;;;;0.07;0.07;;;10.10;99.90;;;;;;5067979;28;20861;-78
2023/11/02 06:49:30;;;;;;;0.10;0.10;;;10.10;99.90;;;;;;5059367;28;20178;-79
2023/11/02 06:51:56;;;;;;;0.10;0.10;;;10.00;99.90;;;;;;5061752;28;20922;-78
2023/11/02 06:54:22;;;;;;;0.10;0.10;;;10.20;99.90;;;;;;5061222;28;20177;-78
2023/11/02 06:56:48;;;;;;;0.00;0.00;;;10.40;99.90;;;;;;5082937;28;20184;-78
2023/11/02 06:59:13;;;;;;;0.10;0.10;;;10.60;99.90;;;;;;5066421;28;20187;-78
2023/11/02 07:01:41;;;;;;;0.10;0.10;;;10.50;99.90;;;;;;5067373;28;20193;-78
2023/11/02 07:04:06;;;;;;;0.10;0.10;;;10.50;99.90;;;;;;5063963;28;20180;-78
2023/11/02 07:06:32;;;;;;;0.10;0.10;;;10.50;99.90;;;;;;5063604;28;20173;-78
2023/11/02 07:08:57;;;;;;;0.10;0.10;;;10.60;99.90;;;;;;5062815;28;20215;-78
2023/11/02 07:11:23;;;;;;;0.10;0.10;;;10.60;99.90;;;;;;5065441;28;20255;-78
2023/11/02 07:13:49;;;;;;;0.07;0.07;;;10.50;99.90;;;;;;5057710;28;20184;-78
2023/11/02 07:16:14;;;;;;;0.10;0.10;;;10.40;99.90;;;;;;5060878;28;20193;-78
2023/11/02 07:18:40;;;;;;;0.10;0.10;;;10.40;99.90;;;;;;5065925;28;20192;-78
2023/11/02 07:21:06;;;;;;;0.10;0.10;;;10.40;99.90;;;;;;5057593;28;20193;-78
2023/11/02 07:23:31;;;;;;;0.60;0.60;;;10.20;99.90;;;;;;5069468;28;20207;-78
2023/11/02 07:25:57;;;;;;;0.10;0.10;;;10.20;99.90;;;;;;5066891;28;20192;-78
2023/11/02 07:28:22;;;;;;;0.10;0.10;;;10.20;99.90;;;;;;5070418;28;20291;-78
2023/11/02 07:30:48;;;;;;;0.10;0.10;;;10.30;99.90;;;;;;5063408;28;20191;-78
2023/11/02 07:33:13;;;;;;;0.10;0.10;;;10.40;99.90;;;;;;5062041;28;20376;-78
2023/11/02 07:35:39;;;;;;;0.10;0.10;;;10.60;99.90;;;;;;5069673;28;20732;-77
2023/11/02 07:38:04;;;;;;;0.10;0.10;;;10.60;99.90;;;;;;5061516;28;20185;-78
2023/11/02 07:40:30;;;;;;;0.10;0.10;;;10.70;99.90;;;;;;5067446;28;20621;-78
2023/11/02 07:42:56;;;;;;;0.10;0.10;;;10.80;99.90;;;;;;5068266;28;20220;-78
2023/11/02 07:45:22;;;;;;;0.10;0.10;;;10.90;99.90;;;;;;5068463;28;20195;-78
2023/11/02 07:47:47;;;;;;;0.10;0.10;;;11.00;99.90;;;;;;5070723;28;20205;-78
2023/11/02 07:50:13;;;;;;;0.03;0.03;;;11.10;99.90;;;;;;5066221;28;20189;-78
2023/11/02 07:52:41;;;;;;;0.10;0.10;;;11.10;99.90;;;;;;5070162;28;20205;-79
2023/11/02 07:55:09;;;;;;;0.10;0.10;;;11.10;99.90;;;;;;5070932;28;20268;-78
2023/11/02 07:57:35;;;;;;;0.10;0.10;;;11.10;99.90;;;;;;5068768;28;20192;-79
2023/11/02 08:00:00;;;;;;;0.10;0.10;;;11.20;99.90;;;;;;5067099;28;20193;-78
2023/11/02 08:02:26;;;;;;;0.10;0.10;;;11.20;99.90;;;;;;5069508;28;20205;-78
2023/11/02 08:04:51;;;;;;;0.10;0.10;;;11.20;99.90;;;;;;5064119;28;20189;-79
2023/11/02 08:07:17;;;;;;;0.10;0.10;;;11.30;99.90;;;;;;5066488;28;20216;-78
2023/11/02 08:09:43;;;;;;;0.10;0.10;;;11.30;99.90;;;;;;5061887;28;20209;-78
2023/11/02 08:12:10;;;;;;;0.10;0.10;;;11.40;99.90;;;;;;5062755;28;20293;-79
2023/11/02 08:14:36;;;;;;;0.00;0.00;;;11.40;99.90;;;;;;5061215;28;20184;-79
2023/11/02 08:17:03;;;;;;;0.10;0.10;;;11.50;99.90;;;;;;5063878;28;20200;-78
2023/11/02 08:19:29;;;;;;;0.10;0.10;;;11.50;99.90;;;;;;5063972;28;20186;-78
2023/11/02 08:21:55;;;;;;;0.10;0.10;;;11.60;99.90;;;;;;5065220;28;20738;-78
2023/11/02 08:24:21;;;;;;;0.10;0.10;;;11.60;99.90;;;;;;5067383;28;20264;-78
2023/11/02 08:26:47;;;;;;;0.10;0.10;;;11.60;99.90;;;;;;5069395;28;20677;-78
2023/11/02 08:29:12;;;;;;;0.10;0.10;;;11.60;99.90;;;;;;5063265;28;20179;-78
2023/11/02 08:31:39;;;;;;;0.10;0.10;;;11.60;99.90;;;;;;5067420;28;20205;-78
2023/11/02 08:34:05;;;;;;;0.10;0.10;;;11.60;99.90;;;;;;5060603;28;20184;-78
2023/11/02 08:36:34;;;;;;;0.10;0.10;;;11.60;99.90;;;;;;5070226;28;20181;-78
2023/11/02 08:38:59;;;;;;;0.10;0.10;;;11.60;99.90;;;;;;5065495;28;20262;-78
2023/11/02 08:41:28;;;;;;;0.10;0.10;;;11.60;99.90;;;;;;5065491;28;20201;-78
2023/11/02 08:43:56;;;;;;;0.10;0.10;;;11.70;99.90;;;;;;5069328;28;20674;-78
2023/11/02 08:46:22;;;;;;;0.10;0.10;;;11.80;99.90;;;;;;5061905;28;20185;-78
2023/11/02 08:48:49;;;;;;;0.10;0.10;;;11.90;99.90;;;;;;5067498;28;20637;-78
2023/11/02 08:51:17;;;;;;;0.10;0.10;;;12.10;99.90;;;;;;5066774;28;20181;-78
2023/11/02 08:53:43;;;;;;;0.10;0.10;;;12.20;99.90;;;;;;5084981;28;20181;-78
2023/11/02 08:56:10;;;;;;;0.10;0.10;;;12.20;99.90;;;;;;5064226;28;20180;-78
2023/11/02 08:58:43;;;;;;;0.10;0.10;;;12.20;99.90;;;;;;5069014;28;20667;-78
2023/11/02 09:01:13;;;;;;;0.10;0.10;;;12.20;99.90;;;;;;5068656;28;20181;-78
2023/11/02 09:03:39;;;;;;;0.10;0.10;;;12.20;99.90;;;;;;5059485;28;21249;-78
2023/11/02 09:06:09;;;;;;;0.10;0.10;;;12.30;99.90;;;;;;5070797;28;20221;-79
2023/11/02 09:08:36;;;;;;;0.10;0.10;;;12.30;99.90;;;;;;5068709;28;20201;-78
2023/11/02 09:11:03;;;;;;;0.10;0.10;;;12.30;99.90;;;;;;5068425;28;20197;-78
2023/11/02 09:13:30;;;;;;;0.10;0.10;;;12.20;99.90;;;;;;5061475;28;20215;-78
2023/11/02 09:15:56;;;;;;;0.10;0.10;;;12.20;99.90;;;;;;5082433;28;20177;-78
2023/11/02 09:18:22;;;;;;;0.10;0.10;;;12.30;99.90;;;;;;5066984;28;20181;-78
2023/11/02 09:20:49;;;;;;;0.10;0.10;;;12.30;99.90;;;;;;5069769;28;20211;-79
2023/11/02 09:23:15;;;;;;;0.10;0.10;;;12.40;99.90;;;;;;5066803;28;20201;-78
2023/11/02 09:25:41;;;;;;;0.10;0.10;;;12.40;99.90;;;;;;5069420;28;20743;-78
2023/11/02 09:28:07;;;;;;;0.10;0.10;;;12.30;99.90;;;;;;5067841;28;20208;-79
2023/11/02 09:30:34;;;;;;;0.10;0.10;;;12.30;99.90;;;;;;5062641;28;20200;-78
2023/11/02 09:32:59;;;;;;;0.10;0.10;;;12.30;99.90;;;;;;5070236;28;20698;-79
2023/11/02 09:35:25;;;;;;;0.10;0.10;;;12.40;99.90;;;;;;5058960;28;20212;-78
2023/11/02 09:37:51;;;;;;;0.10;0.10;;;12.50;99.90;;;;;;5065325;28;20196;-78
2023/11/02 09:40:16;;;;;;;0.10;0.10;;;12.60;99.90;;;;;;5066159;28;20189;-78
2023/11/02 09:42:44;;;;;;;0.10;0.10;;;12.50;99.90;;;;;;5066075;28;20719;-78
2023/11/02 09:45:10;;;;;;;0.10;0.10;;;12.50;99.90;;;;;;5064995;28;20182;-78
2023/11/02 09:47:38;;;;;;;0.03;0.03;;;12.40;99.90;;;;;;5066996;28;20561;-78
2023/11/02 09:50:07;;;;;;;0.10;0.10;;;12.40;99.90;;;;;;5062499;28;20178;-78
2023/11/02 09:52:33;;;;;;;0.10;0.10;;;12.40;99.90;;;;;;5065272;28;20209;-78
2023/11/02 09:54:58;;;;;;;0.10;0.10;;;12.40;99.90;;;;;;5064109;28;20173;-78
2023/11/02 09:57:25;;;;;;;0.10;0.10;;;12.40;99.90;;;;;;5060869;28;20193;-78
2023/11/02 09:59:51;;;;;;;0.10;0.10;;;12.40;99.90;;;;;;5065918;28;20311;-79
2023/11/02 10:02:17;;;;;;;0.10;0.10;;;12.40;99.90;;;;;;5067761;28;20291;-78
2023/11/02 10:04:43;;;;;;;0.10;0.10;;;12.50;99.90;;;;;;5063987;28;20189;-78
2023/11/02 10:07:10;;;;;;;0.10;0.10;;;12.50;99.90;;;;;;5062028;28;20207;-78
2023/11/02 10:09:36;;;;;;;0.10;0.10;;;12.50;99.90;;;;;;5060277;28;20183;-79
2023/11/02 10:12:02;;;;;;;0.10;0.10;;;12.60;99.90;;;;;;5062349;28;20212;-77
2023/11/02 10:14:27;;;;;;;0.00;0.00;;;12.70;99.90;;;;;;5066350;28;20177;-78
2023/11/02 10:17:02;;;;;;;0.00;0.00;;;12.80;99.90;;;;;;5065492;28;20613;-78
2023/11/02 10:19:29;;;;;;;0.10;0.10;;;12.90;99.90;;;;;;5062509;28;20180;-77
2023/11/02 10:21:55;;;;;;;0.10;0.10;;;12.80;99.90;;;;;;5060905;28;20252;-78
2023/11/02 10:24:32;;;;;;;0.10;0.10;;;12.80;99.90;;;;;;5066100;28;20231;-78
2023/11/02 10:26:58;;;;;;;0.10;0.10;;;12.80;99.90;;;;;;5064395;28;20205;-77
2023/11/02 10:29:24;;;;;;;0.10;0.10;;;12.90;99.90;;;;;;5069227;28;22048;-78
2023/11/02 10:31:53;;;;;;;0.10;0.10;;;13.00;99.90;;;;;;5067187;28;20206;-77
2023/11/02 10:34:20;;;;;;;0.07;0.07;;;13.00;99.90;;;;;;5066944;28;20540;-78
2023/11/02 10:36:47;;;;;;;0.10;0.10;;;13.00;99.90;;;;;;5060319;28;20303;-77
2023/11/02 10:39:21;;;;;;;0.10;0.10;;;13.00;99.90;;;;;;5066045;28;20175;-78
2023/11/02 10:41:55;;;;;;;0.10;0.10;;;12.90;99.90;;;;;;5065499;28;20258;-78
2023/11/02 10:44:26;;;;;;;0.10;0.10;;;12.90;99.90;;;;;;5066599;28;20214;-78
2023/11/02 10:46:57;;;;;;;0.10;0.10;;;12.90;99.90;;;;;;5064668;28;20174;-78
2023/11/02 10:49:26;;;;;;;0.10;0.10;;;12.90;99.90;;;;;;5068318;28;20173;-77
2023/11/02 10:51:55;;;;;;;0.10;0.10;;;12.90;99.90;;;;;;5066719;28;20197;-78
2023/11/02 10:54:26;;;;;;;0.10;0.10;;;12.90;99.90;;;;;;5062490;28;20181;-77
2023/11/02 10:57:14;;;;;;;0.10;0.10;;;12.80;99.90;;;;;;5067484;28;21183;-77
2023/11/02 10:59:41;;;;;;;0.10;0.10;;;12.70;99.90;;;;;;5063092;28;20185;-77
2023/11/02 11:02:10;;;;;;;0.10;0.10;;;12.80;99.90;;;;;;5059020;28;20330;-77
2023/11/02 11:04:38;;;;;;;0.10;0.10;;;12.90;99.90;;;;;;5063327;28;20172;-77
2023/11/02 11:07:05;;;;;;;0.10;0.10;;;12.90;99.90;;;;;;5065908;28;20243;-77
2023/11/02 11:09:32;;;;;;;0.10;0.10;;;12.90;99.90;;;;;;5066648;28;20179;-77
2023/11/02 11:12:00;;;;;;;0.10;0.10;;;12.80;99.90;;;;;;5061877;28;20216;-77
2023/11/02 11:14:27;;;;;;;0.10;0.10;;;12.90;99.90;;;;;;5064771;28;20195;-77
2023/11/02 11:16:56;;;;;;;0.10;0.10;;;12.90;99.90;;;;;;5066408;28;20274;-78
2023/11/02 11:19:22;;;;;;;0.10;0.10;;;12.90;99.90;;;;;;5067232;28;20261;-77
2023/11/02 11:21:49;;;;;;;0.10;0.10;;;12.80;99.90;;;;;;5064800;28;20208;-78
2023/11/02 11:24:16;;;;;;;0.10;0.10;;;12.80;99.90;;;;;;5064179;28;20751;-78
2023/11/02 11:26:55;;;;;;;0.10;0.10;;;12.70;99.90;;;;;;5061199;28;20189;-78
2023/11/02 11:29:40;;;;;;;0.10;0.10;;;12.70;99.90;;;;;;5084049;28;20238;-78
2023/11/02 11:32:07;;;;;;;0.10;0.10;;;12.80;99.90;;;;;;5066503;28;20208;-78
2023/11/02 11:34:55;;;;;;;0.10;0.10;;;12.80;99.90;;;;;;5063141;28;20191;-79
2023/11/02 11:37:49;;;;;;;0.10;0.10;;;12.80;99.90;;;;;;5058731;28;20193;-79
2023/11/02 11:40:21;;;;;;;0.10;0.10;;;12.80;99.90;;;;;;5065661;28;20257;-79
2023/11/02 11:43:35;;;;;;;0.10;0.10;;;12.80;99.90;;;;;;5064231;28;20210;-78
2023/11/02 11:45:54;;;;;;;0.10;0.10;;;12.80;99.90;;;;;;5061678;28;20193;-78
2023/11/02 11:48:32;;;;;;;0.10;0.10;;;12.80;99.90;;;;;;5058349;28;20200;-78
2023/11/02 11:50:58;;;;;;;0.10;0.10;;;12.90;99.90;;;;;;5062942;28;20185;-78
2023/11/02 11:53:25;;;;;;;0.10;0.10;;;12.90;99.90;;;;;;5060592;28;20202;-78
2023/11/02 11:55:55;;;;;;;0.10;0.10;;;12.90;99.90;;;;;;5059613;28;20188;-78
2023/11/02 11:58:40;;;;;;;0.10;0.10;;;12.90;99.90;;;;;;5066245;28;20693;-78
2023/11/02 12:01:17;;;;;;;0.10;0.10;;;13.00;99.90;;;;;;5064530;28;21141;-78
2023/11/02 12:03:47;;;;;;;0.00;0.00;;;13.10;99.90;;;;;;5065728;28;20178;-79
2023/11/02 12:06:14;;;;;;;0.10;0.10;;;13.10;99.90;;;;;;5068979;28;20178;-79
2023/11/02 12:08:47;;;;;;;0.10;0.10;;;13.20;99.90;;;;;;5067271;28;20219;-79
2023/11/02 12:11:24;;;;;;;0.00;0.00;;;13.20;99.90;;;;;;5071001;28;20207;-79
2023/11/02 12:13:58;;;;;;;0.10;0.10;;;13.30;99.90;;;;;;5064084;28;20278;-78
2023/11/02 12:16:32;;;;;;;0.10;0.10;;;13.30;99.90;;;;;;5068751;28;20174;-78
2023/11/02 12:18:57;;;;;;;0.10;0.10;;;13.40;99.90;;;;;;5066597;28;20245;-78
2023/11/02 12:21:24;;;;;;;0.10;0.10;;;13.40;99.90;;;;;;5063701;28;20191;-78
2023/11/02 12:23:51;;;;;;;0.10;0.10;;;13.40;99.90;;;;;;5064038;28;20408;-78
2023/11/02 12:26:21;;;;;;;0.10;0.10;;;13.40;99.90;;;;;;5068601;28;20190;-78
2023/11/02 12:28:49;;;;;;;0.10;0.10;;;13.40;99.90;;;;;;5064432;28;20222;-78
2023/11/02 12:31:32;;;;;;;0.10;0.10;;;13.40;99.90;;;;;;5065483;28;20666;-78
2023/11/02 12:34:01;;;;;;;0.10;0.10;;;13.40;99.90;;;;;;5064302;28;20547;-78
2023/11/02 12:36:27;;;;;;;0.10;0.10;;;13.40;99.90;;;;;;5060922;28;20494;-78
2023/11/02 12:38:55;;;;;;;0.10;0.10;;;13.40;99.90;;;;;;5065288;28;20190;-78
2023/11/02 12:41:33;;;;;;;0.10;0.10;;;13.40;99.90;;;;;;5066773;28;20184;-79
2023/11/02 12:44:09;;;;;;;0.10;0.10;;;13.40;99.90;;;;;;5063120;28;20182;-78
2023/11/02 12:46:40;;;;;;;0.03;0.03;;;13.40;99.90;;;;;;5065202;28;20179;-78
2023/11/02 12:49:26;;;;;;;0.10;0.10;;;13.40;99.90;;;;;;5068886;28;20209;-78
2023/11/02 12:52:01;;;;;;;0.10;0.10;;;13.40;99.90;;;;;;5061797;28;20211;-78
2023/11/02 12:54:31;;;;;;;0.10;0.10;;;13.40;99.90;;;;;;5071502;28;20250;-78
2023/11/02 12:57:05;;;;;;;0.10;0.10;;;13.40;99.90;;;;;;5070499;28;20505;-78
2023/11/02 12:59:42;;;;;;;0.10;0.10;;;13.40;99.90;;;;;;5070706;28;20184;-78
2023/11/02 13:02:11;;;;;;;0.10;0.10;;;13.50;99.90;;;;;;5067954;28;20203;-78